STA601 VNPL-VNLK
Flight info
| Callsign | STA601 |
|---|---|
| Flight time | 0h 6m |
| Altitude | 17000 |
| Route | 2740N08642E DCT 274031N0864238E |
| Aircraft | C208/L-SDFGR/C |
Departure
| Time | 2026-04-26 11:06 |
|---|---|
| Airport | Phaplu Airport (VNPL) |
Arrival
| Time | 2026-04-26 11:12 |
|---|---|
| Airport | Tenzing-Hillary Airport (VNLK) |
| Time | Latitude | Longitude | Altitude | Speed | Heading |
|---|---|---|---|---|---|
| 2026-04-26 11:03 | 27.51730 | 86.58456 | 8071 ft | 0 kts | 22° |
| 2026-04-26 11:04 | 27.51739 | 86.58431 | 8070 ft | 7 kts | 216° |
| 2026-04-26 11:04 | 27.51724 | 86.58434 | 8072 ft | 0 kts | 146° |
| 2026-04-26 11:04 | 27.51494 | 86.58396 | 8089 ft | 32 kts | 204° |
| 2026-04-26 11:05 | 27.51452 | 86.58365 | 8138 ft | 0 kts | 237° |
| 2026-04-26 11:05 | 27.51520 | 86.58369 | 8087 ft | 2 kts | 46° |
| 2026-04-26 11:05 | 27.51523 | 86.58379 | 8088 ft | 0 kts | 82° |
| 2026-04-26 11:06 | 27.51648 | 86.58439 | 8073 ft | 59 kts | 14° |
| 2026-04-26 11:06 | 27.52913 | 86.58884 | 8610 ft | 109 kts | 4° |
| 2026-04-26 11:06 | 27.53713 | 86.58819 | 8963 ft | 115 kts | 332° |
| 2026-04-26 11:07 | 27.54476 | 86.58470 | 9317 ft | 116 kts | 355° |
| 2026-04-26 11:07 | 27.55313 | 86.58532 | 9548 ft | 136 kts | 6° |
| 2026-04-26 11:07 | 27.56126 | 86.58869 | 10146 ft | 115 kts | 27° |
| 2026-04-26 11:07 | 27.56893 | 86.59327 | 10227 ft | 145 kts | 27° |
| 2026-04-26 11:08 | 27.57775 | 86.59987 | 10285 ft | 157 kts | 46° |
| 2026-04-26 11:08 | 27.58440 | 86.60916 | 10287 ft | 169 kts | 43° |
| 2026-04-26 11:08 | 27.59184 | 86.61880 | 10607 ft | 160 kts | 52° |
| 2026-04-26 11:08 | 27.59766 | 86.62991 | 10611 ft | 169 kts | 59° |
| 2026-04-26 11:09 | 27.60339 | 86.64154 | 10740 ft | 167 kts | 69° |
| 2026-04-26 11:09 | 27.60815 | 86.65381 | 10741 ft | 175 kts | 58° |
| 2026-04-26 11:09 | 27.61665 | 86.66455 | 10449 ft | 191 kts | 49° |
| 2026-04-26 11:09 | 27.62442 | 86.67587 | 10711 ft | 173 kts | 46° |
| 2026-04-26 11:10 | 27.63291 | 86.68485 | 10371 ft | 150 kts | 37° |
| 2026-04-26 11:10 | 27.64045 | 86.69060 | 10121 ft | 108 kts | 26° |
| 2026-04-26 11:10 | 27.64672 | 86.69432 | 9832 ft | 96 kts | 25° |
| 2026-04-26 11:10 | 27.65278 | 86.69796 | 9718 ft | 102 kts | 25° |
| 2026-04-26 11:11 | 27.65918 | 86.70129 | 9843 ft | 103 kts | 17° |
| 2026-04-26 11:11 | 27.66603 | 86.70422 | 9877 ft | 106 kts | 14° |
| 2026-04-26 11:11 | 27.67268 | 86.70776 | 9773 ft | 106 kts | 33° |
| 2026-04-26 11:11 | 27.67792 | 86.71348 | 9616 ft | 104 kts | 46° |
| 2026-04-26 11:12 | 27.68196 | 86.72012 | 9383 ft | 106 kts | 53° |
| 2026-04-26 11:12 | 27.68540 | 86.72686 | 9196 ft | 94 kts | 57° |
| 2026-04-26 11:12 | 27.68761 | 86.73117 | 9350 ft | 20 kts | 59° |
| 2026-04-26 11:12 | 27.68769 | 86.73132 | 9358 ft | 8 kts | 55° |
| 2026-04-26 11:13 | 27.68796 | 86.73183 | 9369 ft | 0 kts | 11° |
| 2026-04-26 11:13 | 27.68802 | 86.73181 | 9369 ft | 0 kts | 323° |
| 2026-04-26 11:13 | 27.68805 | 86.73174 | 9368 ft | 0 kts | 287° |
| 2026-04-26 11:13 | 27.68787 | 86.73169 | 9367 ft | 2 kts | 285° |
| 2026-04-26 11:14 | 27.68776 | 86.73156 | 9365 ft | 4 kts | 189° |
| 2026-04-26 11:14 | 27.68765 | 86.73158 | 9364 ft | 0 kts | 154° |
| 2026-04-26 11:14 | 27.68751 | 86.73169 | 9364 ft | 9 kts | 143° |
| 2026-04-26 11:15 | 27.68717 | 86.73157 | 9364 ft | 5 kts | 288° |
| 2026-04-26 11:15 | 27.68738 | 86.73141 | 9364 ft | 2 kts | 348° |
| 2026-04-26 11:15 | 27.68743 | 86.73141 | 9364 ft | 2 kts | 13° |
| 2026-04-26 11:15 | 27.68749 | 86.73149 | 9364 ft | 0 kts | 79° |